Hovedside
METAR-TAF:

METAR-TAF

Lufthavner :

Vidsel, Sverige

breddegrad: 65-52N, lengdegrad: 020-08E, høyde over havet: 180 m

Gjeldene værobservasjon

Denne rapporten ble laget for 37 minutter siden, klokken 09:50 UTC
Vind 8 kt fra Øst-sørøst
Temperatur 11°C
Luftfuktighet 87%
Trykk 992 hPa
Sikt 10 km eller mer
lette regnbyger

METAR: ESPE 250950Z AUTO 11008KT 9999 -SHRA FEW015/// OVC046/// 11/09 Q0992

Tid: 12:27 (10:27 UTC)


TAF: fraværende

Værobservasjoner og værvarsel for over 4000 flyplasser (METAR- og TAF-rapporter).

Tilgjengelige stasjoner er representert av de røde og gule prikkene på kartet.

Hold musepekeren over prikken for å se navnet på stasjonen.

Klikk så for å se værobservasjoner og -varsler.

For å forandre kartet kan du klikke på den grønne knappen med svart kryss for å zoome inn, på den grønne knappen med strek for å zoome ut, eller på de grønne pilene for å se tilstøtende kart.


METAR-TAF: